X  Zatvori METAR podaci zračne luke     KSWO Stillwater Regional Airport
Temperatura
46°F Temperatura
45°F Točka rosišta
93% Vlaga



Vjetar
0 MPS
0 KM/S
0 M/S
0 Čvorovi



Tišina
S
Trenutna situacija

Oblačno Oblačno
Tlak zraka 1023.42 (hPa) - 30.22 (inHg)
Vidljivost 9 (milje) - 14.5 (km)
Zračna luka
Kôd zračne luke KSWO

Lokacija: Stillwater Regional Airport
Udaljenost: 4 (mi)

Metar:
KSWO 071534Z 00000KT 9SM OVC005 08/07 A3022 RMK AO2 T00830067

Vrijeme: 12-07-2022 9:34 am CST